Four Mile Corner, Arkansas
Current Conditions -  °F | °C
As of 8:56 AM on Wednesday 26 Nov 2014 (Local Time) from KSRC Reporting Station
Clear Clear  
Wind Chill: 34°   Ceiling: Unl
Heat Index: 34°   Visibility: 10mi
Dew Point: 33°   Wind: 0mph
Humidity: 96%   Direction: NA
Pressure: 30.07"   Gusts: NA
Location:  34.9712°N, 91.571°W
Report Text: KSRC 261456Z AUTO 00000KT 10SM CLR 01/01 A3007 RMK AO2 SLP192 T00110006 58011 FZRANO TSNO
Loading
Personal Weather Stations






























Interactive Weather Map New forecast layout! Learn more

10-Day Weather Forecast

Advertisements
Track Severe Weather on mobile